createdAt,value
2023-12-11T00:00:46.507Z,0.14
2023-12-11T00:01:49.156Z,0.16
2023-12-11T00:02:51.605Z,0.15
2023-12-11T00:03:54.997Z,0.14
2023-12-11T00:04:57.888Z,0.11
2023-12-11T00:06:00.686Z,0.12
2023-12-11T00:07:03.311Z,0.12
2023-12-11T00:08:07.333Z,0.11
2023-12-11T00:09:10.881Z,0.09
2023-12-11T00:10:14.272Z,0.06
2023-12-11T00:11:16.554Z,0.06
2023-12-11T00:12:18.853Z,0.05
2023-12-11T00:13:21.217Z,0.04
2023-12-11T00:14:23.608Z,0.04
2023-12-11T00:15:26.043Z,0.04
2023-12-11T00:16:28.552Z,0.07
2023-12-11T00:17:31.318Z,0.08
2023-12-11T00:18:34.301Z,0.11
2023-12-11T00:19:37.407Z,0.11
2023-12-11T00:20:40.068Z,0.14
2023-12-11T00:21:43.013Z,0.16
2023-12-11T00:22:45.881Z,0.14
2023-12-11T00:23:48.936Z,0.15
2023-12-11T00:24:51.804Z,0.14
2023-12-11T00:25:54.318Z,0.14
2023-12-11T00:26:56.743Z,0.14
2023-12-11T00:27:59.584Z,0.15
2023-12-11T00:29:01.942Z,0.15
2023-12-11T00:30:05.195Z,0.16
2023-12-11T00:32:10.578Z,0.12
2023-12-11T00:33:12.933Z,0.13
2023-12-11T00:34:15.540Z,0.10
2023-12-11T00:35:18.257Z,0.12
2023-12-11T00:36:22.273Z,0.12
2023-12-11T00:37:25.190Z,0.10
2023-12-11T00:38:28.020Z,0.14
2023-12-11T00:39:31.259Z,0.14
2023-12-11T00:40:35.461Z,0.15
2023-12-11T00:41:37.896Z,0.12
2023-12-11T00:42:40.508Z,0.09
2023-12-11T00:43:45.596Z,0.10
2023-12-11T00:44:47.222Z,0.11
2023-12-11T00:45:49.625Z,0.11
2023-12-11T00:46:52.532Z,0.09
2023-12-11T00:47:55.120Z,0.09
2023-12-11T00:48:57.737Z,0.09
2023-12-11T00:50:02.796Z,0.06
2023-12-11T00:51:05.055Z,0.06
2023-12-11T00:52:08.413Z,0.08
2023-12-11T00:53:10.726Z,0.06
2023-12-11T00:54:13.488Z,0.06
2023-12-11T00:55:15.925Z,0.07
2023-12-11T00:56:20.422Z,0.09
2023-12-11T00:57:22.680Z,0.12
2023-12-11T00:58:24.938Z,0.12
2023-12-11T00:59:27.182Z,0.12
2023-12-11T01:00:30.232Z,0.07
2023-12-11T01:01:33.175Z,0.06
2023-12-11T01:02:35.662Z,0.05
2023-12-11T01:03:39.196Z,0.03
2023-12-11T01:04:42.739Z,0.05
2023-12-11T01:05:45.210Z,0.03
2023-12-11T01:06:47.805Z,0.03
2023-12-11T01:07:50.176Z,0.03
2023-12-11T01:08:53.102Z,0.04
2023-12-11T01:09:56.299Z,0.04
2023-12-11T01:11:00.203Z,0.05
2023-12-11T01:12:02.659Z,0.04
2023-12-11T01:13:05.387Z,0.05
2023-12-11T01:14:07.618Z,0.05
2023-12-11T01:15:10.231Z,0.03
2023-12-11T01:16:12.975Z,0.04
2023-12-11T01:17:37.168Z,0.02
2023-12-11T01:18:19.723Z,0.00
2023-12-11T01:19:22.156Z,0.02
2023-12-11T01:20:26.334Z,0.04
2023-12-11T01:21:28.839Z,0.03
2023-12-11T01:22:31.117Z,0.04
2023-12-11T01:23:33.891Z,-0.02
2023-12-11T01:24:36.199Z,0.00
2023-12-11T01:25:38.921Z,-0.01
2023-12-11T01:26:41.604Z,0.02
2023-12-11T01:27:44.370Z,0.00
2023-12-11T01:28:46.993Z,0.02
2023-12-11T01:29:49.744Z,0.03
2023-12-11T01:30:52.324Z,-0.02
2023-12-11T01:31:54.824Z,-0.04
2023-12-11T01:32:57.149Z,-0.06
2023-12-11T01:34:00.140Z,-0.08
2023-12-11T01:35:02.486Z,-0.06
2023-12-11T01:36:05.663Z,-0.10
2023-12-11T01:37:08.310Z,-0.08
2023-12-11T01:38:10.689Z,-0.11
2023-12-11T01:39:13.116Z,-0.09
2023-12-11T01:40:16.614Z,-0.11
2023-12-11T01:41:18.931Z,-0.09
2023-12-11T01:42:21.670Z,-0.10
2023-12-11T01:43:24.044Z,-0.08
2023-12-11T01:44:26.512Z,-0.09
2023-12-11T01:45:29.004Z,-0.10
2023-12-11T01:46:33.239Z,-0.10
2023-12-11T01:47:35.663Z,-0.07
2023-12-11T01:48:38.925Z,-0.08
2023-12-11T01:49:42.283Z,-0.09
2023-12-11T01:50:45.685Z,-0.09
2023-12-11T01:51:48.990Z,-0.09
2023-12-11T01:52:51.508Z,-0.10
2023-12-11T01:53:53.923Z,-0.09
2023-12-11T01:54:56.303Z,-0.10
2023-12-11T01:55:59.018Z,-0.10
2023-12-11T01:57:01.827Z,-0.10
2023-12-11T01:58:06.624Z,-0.11
2023-12-11T01:59:09.428Z,-0.08
2023-12-11T02:00:14.819Z,-0.14
2023-12-11T02:01:19.704Z,-0.10
2023-12-11T02:02:22.628Z,-0.11
2023-12-11T02:03:25.297Z,-0.13
2023-12-11T02:04:27.748Z,-0.13
2023-12-11T02:05:30.204Z,-0.13
2023-12-11T02:06:33.062Z,-0.16
2023-12-11T02:07:35.431Z,-0.13
2023-12-11T02:08:37.745Z,-0.11
2023-12-11T02:09:41.011Z,-0.10
2023-12-11T02:10:44.180Z,-0.11
2023-12-11T02:11:47.581Z,-0.11
2023-12-11T02:12:50.361Z,-0.09
2023-12-11T02:13:53.097Z,-0.09
2023-12-11T02:14:55.488Z,-0.10
2023-12-11T02:15:58.072Z,-0.07
2023-12-11T02:17:02.595Z,-0.06
2023-12-11T02:18:05.713Z,-0.03
2023-12-11T02:19:08.190Z,-0.04
2023-12-11T02:20:12.220Z,0.00
2023-12-11T02:21:15.416Z,0.02
2023-12-11T02:22:18.270Z,0.02
2023-12-11T02:23:30.876Z,0.03
2023-12-11T02:24:36.990Z,0.05
2023-12-11T02:25:41.203Z,-0.02
2023-12-11T02:26:44.518Z,-0.01
2023-12-11T02:27:46.861Z,-0.01
2023-12-11T02:28:49.527Z,-0.01
2023-12-11T02:29:52.157Z,0.02
2023-12-11T02:30:54.600Z,0.04
2023-12-11T02:31:57.286Z,0.05
2023-12-11T02:32:59.991Z,0.08
2023-12-11T02:34:02.649Z,0.06
2023-12-11T02:35:06.061Z,0.07
2023-12-11T02:36:09.217Z,0.06
2023-12-11T02:37:11.758Z,0.08
2023-12-11T02:38:14.094Z,0.06
2023-12-11T02:39:16.416Z,0.06
2023-12-11T02:40:19.606Z,0.08
2023-12-11T02:41:21.884Z,0.10
2023-12-11T02:42:24.175Z,0.09
2023-12-11T02:43:26.601Z,0.08
2023-12-11T02:44:29.329Z,0.07
2023-12-11T02:45:31.721Z,0.09
2023-12-11T02:46:40.853Z,0.09
2023-12-11T02:47:43.402Z,0.06
2023-12-11T02:48:45.883Z,0.08
2023-12-11T02:49:48.389Z,0.07
2023-12-11T02:50:51.444Z,0.11
2023-12-11T02:51:54.103Z,0.13
2023-12-11T02:54:07.179Z,0.25
2023-12-11T02:55:09.481Z,0.09
2023-12-11T02:56:13.044Z,0.12
2023-12-11T02:57:15.424Z,0.14
2023-12-11T02:58:17.879Z,0.14
2023-12-11T02:59:20.499Z,0.16
2023-12-11T03:00:24.890Z,0.16
2023-12-11T03:01:27.322Z,0.18
2023-12-11T03:02:29.946Z,0.18
2023-12-11T03:03:32.367Z,0.18
2023-12-11T03:04:34.923Z,0.21
2023-12-11T03:05:37.913Z,0.19
2023-12-11T03:06:40.925Z,0.20
2023-12-11T03:07:43.361Z,0.21
2023-12-11T03:08:45.652Z,0.19
2023-12-11T03:09:47.980Z,0.19
2023-12-11T03:10:50.720Z,0.19
2023-12-11T03:11:53.790Z,0.20
2023-12-11T03:12:56.127Z,0.21
2023-12-11T03:13:58.501Z,0.22
2023-12-11T03:15:01.829Z,0.22
2023-12-11T03:16:05.010Z,0.26
2023-12-11T03:17:07.632Z,0.25
2023-12-11T03:18:11.549Z,0.25
2023-12-11T03:19:14.021Z,0.22
2023-12-11T03:20:18.438Z,0.19
2023-12-11T03:21:20.726Z,0.21
2023-12-11T03:22:23.282Z,0.18
2023-12-11T03:23:26.230Z,0.19
2023-12-11T03:24:28.485Z,0.16
2023-12-11T03:25:31.262Z,0.18
2023-12-11T03:26:34.219Z,0.15
2023-12-11T03:27:36.649Z,0.15
2023-12-11T03:28:39.122Z,0.16
2023-12-11T03:29:41.609Z,0.17
2023-12-11T03:30:44.317Z,0.15
2023-12-11T03:31:46.757Z,0.15
2023-12-11T03:32:49.258Z,0.14
2023-12-11T03:33:52.168Z,0.14
2023-12-11T03:34:54.751Z,0.14
2023-12-11T03:35:57.019Z,0.16
2023-12-11T03:36:59.627Z,0.15
2023-12-11T03:38:01.936Z,0.15
2023-12-11T03:39:04.750Z,0.18
2023-12-11T03:40:09.014Z,0.15
2023-12-11T03:41:12.095Z,0.17
2023-12-11T03:42:14.521Z,0.16
2023-12-11T03:43:17.303Z,0.18
2023-12-11T03:44:19.671Z,0.19
2023-12-11T03:45:22.303Z,0.22
2023-12-11T03:46:25.248Z,0.23
2023-12-11T03:47:27.818Z,0.23
2023-12-11T03:48:30.585Z,0.22
2023-12-11T03:49:33.615Z,0.22
2023-12-11T03:50:36.364Z,0.20
2023-12-11T03:51:38.729Z,0.20
2023-12-11T03:52:42.110Z,0.19
2023-12-11T03:53:44.470Z,0.18
2023-12-11T03:54:47.139Z,0.20
2023-12-11T03:55:49.445Z,0.20
2023-12-11T03:56:52.243Z,0.21
2023-12-11T03:57:54.691Z,0.24
2023-12-11T03:58:57.343Z,0.24
2023-12-11T03:59:59.948Z,0.26
2023-12-11T04:01:02.444Z,0.24
2023-12-11T04:02:05.785Z,0.25
2023-12-11T04:03:08.695Z,0.24
2023-12-11T04:04:11.129Z,0.22
2023-12-11T04:05:13.557Z,0.22
2023-12-11T04:06:17.479Z,0.23
2023-12-11T04:07:19.847Z,0.22
2023-12-11T04:08:22.591Z,0.25
2023-12-11T04:09:25.075Z,0.24
2023-12-11T04:10:27.901Z,0.23
2023-12-11T04:11:30.258Z,0.23
2023-12-11T04:12:32.834Z,0.25
2023-12-11T04:13:35.738Z,0.26
2023-12-11T04:14:38.068Z,0.25
2023-12-11T04:15:40.435Z,0.24
2023-12-11T04:16:43.993Z,0.26
2023-12-11T04:17:46.843Z,0.27
2023-12-11T04:18:49.294Z,0.29
2023-12-11T04:19:52.282Z,0.29
2023-12-11T04:20:56.209Z,0.31
2023-12-11T04:21:58.907Z,0.30
2023-12-11T04:23:01.160Z,0.33
2023-12-11T04:24:04.308Z,0.36
2023-12-11T04:25:07.069Z,0.36
2023-12-11T04:26:11.529Z,0.39
2023-12-11T04:27:13.900Z,0.39
2023-12-11T04:28:16.754Z,0.40
2023-12-11T04:29:19.076Z,0.39
2023-12-11T04:30:23.328Z,0.39
2023-12-11T04:31:25.628Z,0.39
2023-12-11T04:32:28.351Z,0.42
2023-12-11T04:33:30.910Z,0.42
2023-12-11T04:34:33.538Z,0.43
2023-12-11T04:35:35.956Z,0.46
2023-12-11T04:36:43.333Z,0.47
2023-12-11T04:37:46.304Z,0.48
2023-12-11T04:38:48.630Z,0.50
2023-12-11T04:39:51.445Z,0.54
2023-12-11T04:40:54.437Z,0.52
2023-12-11T04:41:57.075Z,0.52
2023-12-11T04:42:59.470Z,0.52
2023-12-11T04:44:02.446Z,0.52
2023-12-11T04:45:05.867Z,0.49
2023-12-11T04:46:09.829Z,0.51
2023-12-11T04:47:12.202Z,0.54
2023-12-11T04:48:14.713Z,0.54
2023-12-11T04:49:17.235Z,0.55
2023-12-11T04:50:21.281Z,0.56
2023-12-11T04:51:23.746Z,0.59
2023-12-11T04:52:26.185Z,0.60
2023-12-11T04:53:28.509Z,0.60
2023-12-11T04:54:30.912Z,0.58
2023-12-11T04:55:33.312Z,0.61
2023-12-11T04:56:36.173Z,0.62
2023-12-11T04:57:38.470Z,0.61
2023-12-11T04:58:40.746Z,0.62
2023-12-11T04:59:44.241Z,0.63
2023-12-11T05:00:49.487Z,0.62
2023-12-11T05:01:52.003Z,0.62
2023-12-11T05:02:54.842Z,0.65
2023-12-11T05:03:57.747Z,0.68
2023-12-11T05:05:00.062Z,0.67
2023-12-11T05:06:02.513Z,0.67
2023-12-11T05:07:04.859Z,0.65
2023-12-11T05:08:07.164Z,0.66
2023-12-11T05:09:10.036Z,0.66
2023-12-11T05:10:13.994Z,0.65
2023-12-11T05:11:16.900Z,0.65
2023-12-11T05:12:19.468Z,0.65
2023-12-11T05:13:22.301Z,0.62
2023-12-11T05:14:24.795Z,0.63
2023-12-11T05:15:27.157Z,0.62
2023-12-11T05:16:31.647Z,0.61
2023-12-11T05:17:34.743Z,0.63
2023-12-11T05:18:37.406Z,0.62
2023-12-11T05:19:40.397Z,0.65
2023-12-11T05:20:43.193Z,0.65
2023-12-11T05:21:46.139Z,0.68
2023-12-11T05:22:51.316Z,0.66
2023-12-11T05:23:53.705Z,0.70
2023-12-11T05:24:56.416Z,0.68
2023-12-11T05:25:58.889Z,0.71
2023-12-11T05:27:03.167Z,0.68
2023-12-11T05:28:05.470Z,0.70
2023-12-11T05:29:07.770Z,0.69
2023-12-11T05:30:12.362Z,0.69
2023-12-11T05:31:15.857Z,0.68
2023-12-11T05:32:18.150Z,0.70
2023-12-11T05:33:20.560Z,0.69
2023-12-11T05:34:23.076Z,0.72
2023-12-11T05:35:26.130Z,0.72
2023-12-11T05:36:29.313Z,0.73
2023-12-11T05:37:32.553Z,0.73
2023-12-11T05:38:35.666Z,0.75
2023-12-11T05:39:41.420Z,0.76
2023-12-11T05:40:44.562Z,0.76
2023-12-11T05:41:47.172Z,0.78
2023-12-11T05:42:50.054Z,0.79
2023-12-11T05:43:52.710Z,0.79
2023-12-11T05:44:54.952Z,0.79
2023-12-11T05:45:57.775Z,0.77
2023-12-11T05:47:00.669Z,0.77
2023-12-11T05:48:03.319Z,0.79
2023-12-11T05:49:06.203Z,0.80
2023-12-11T05:50:10.298Z,0.80
2023-12-11T05:51:13.095Z,0.81
2023-12-11T05:52:16.109Z,0.86
2023-12-11T05:54:35.931Z,0.95
2023-12-11T05:55:38.959Z,0.86
2023-12-11T05:56:41.649Z,0.83
2023-12-11T05:57:46.306Z,0.82
2023-12-11T05:58:48.553Z,0.82
2023-12-11T05:59:51.072Z,0.81
2023-12-11T06:00:54.192Z,0.80
2023-12-11T06:01:56.690Z,0.81
2023-12-11T06:02:59.521Z,0.78
2023-12-11T06:04:02.496Z,0.82
2023-12-11T06:05:06.067Z,0.83
2023-12-11T06:06:17.999Z,0.83
2023-12-11T06:07:20.329Z,0.82
2023-12-11T06:08:23.733Z,0.83
2023-12-11T06:09:27.118Z,0.83
2023-12-11T06:10:30.334Z,0.81
2023-12-11T06:11:33.537Z,0.81
2023-12-11T06:12:37.059Z,0.81
2023-12-11T06:13:39.447Z,0.82
2023-12-11T06:14:44.529Z,0.82
2023-12-11T06:15:46.540Z,0.83
2023-12-11T06:16:50.000Z,0.83
2023-12-11T06:17:52.526Z,0.83
2023-12-11T06:18:55.116Z,0.82
2023-12-11T06:19:57.571Z,0.84
2023-12-11T06:21:02.894Z,0.82
2023-12-11T06:22:05.813Z,0.79
2023-12-11T06:23:08.080Z,0.82
2023-12-11T06:24:10.466Z,0.80
2023-12-11T06:25:13.388Z,0.77
2023-12-11T06:26:31.024Z,0.79
2023-12-11T06:27:34.001Z,0.79
2023-12-11T06:29:56.090Z,0.83
2023-12-11T06:30:59.287Z,0.70
2023-12-11T06:32:01.981Z,0.73
2023-12-11T06:33:04.269Z,0.76
2023-12-11T06:34:07.152Z,0.76
2023-12-11T06:35:10.776Z,0.77
2023-12-11T06:36:14.577Z,0.73
2023-12-11T06:37:17.008Z,0.76
2023-12-11T06:38:20.552Z,0.72
2023-12-11T06:39:23.236Z,0.72
2023-12-11T06:40:26.714Z,0.75
2023-12-11T06:41:29.147Z,0.74
2023-12-11T06:42:31.819Z,0.75
2023-12-11T06:43:34.174Z,0.77
2023-12-11T06:44:38.811Z,0.77
2023-12-11T06:45:41.262Z,0.78
2023-12-11T06:46:43.675Z,0.76
2023-12-11T06:47:46.449Z,0.77
2023-12-11T06:48:49.394Z,0.75
2023-12-11T06:49:51.979Z,0.80
2023-12-11T06:50:54.570Z,0.79
2023-12-11T06:51:58.407Z,0.81
2023-12-11T06:53:00.915Z,0.83
2023-12-11T06:54:03.331Z,0.85
2023-12-11T06:55:06.350Z,0.85
2023-12-11T06:56:11.632Z,0.88
2023-12-11T06:57:13.927Z,0.89
2023-12-11T06:58:16.458Z,0.89
2023-12-11T06:59:19.237Z,0.87
2023-12-11T07:00:23.212Z,0.88
2023-12-11T07:01:33.439Z,0.87
2023-12-11T07:02:36.217Z,0.87
2023-12-11T07:03:40.564Z,0.87
2023-12-11T07:04:43.790Z,0.86
2023-12-11T07:05:47.416Z,0.87
2023-12-11T07:06:50.854Z,0.87
2023-12-11T07:07:53.268Z,0.88
2023-12-11T07:08:55.959Z,0.91
2023-12-11T07:09:59.305Z,0.91
2023-12-11T07:11:02.689Z,0.92
2023-12-11T07:12:05.746Z,0.92
2023-12-11T07:13:08.545Z,0.95
2023-12-11T07:14:11.519Z,0.94
2023-12-11T07:15:14.428Z,0.94
2023-12-11T07:16:18.267Z,0.96
2023-12-11T07:17:21.305Z,0.97
2023-12-11T07:18:24.037Z,0.99
2023-12-11T07:19:29.137Z,1.00
2023-12-11T07:20:31.764Z,1.00
2023-12-11T07:21:34.082Z,1.01
2023-12-11T07:22:36.513Z,1.02
2023-12-11T07:23:39.805Z,1.03
2023-12-11T07:24:42.290Z,1.04
2023-12-11T07:25:44.700Z,1.04
2023-12-11T07:26:47.228Z,1.04
2023-12-11T07:27:49.954Z,1.06
2023-12-11T07:28:52.239Z,1.05
2023-12-11T07:29:54.579Z,1.06
2023-12-11T07:30:57.183Z,1.08
2023-12-11T07:31:59.485Z,1.08
2023-12-11T07:33:02.055Z,1.08
2023-12-11T07:34:04.665Z,1.08
2023-12-11T07:35:09.563Z,1.10
2023-12-11T07:36:13.742Z,1.08
2023-12-11T07:37:16.183Z,1.06
2023-12-11T07:38:18.620Z,1.06
2023-12-11T07:39:21.076Z,1.06
2023-12-11T07:40:25.228Z,1.05
2023-12-11T07:41:28.069Z,1.06
2023-12-11T07:42:30.748Z,1.09
2023-12-11T07:43:34.118Z,1.12
2023-12-11T07:44:37.536Z,1.11
2023-12-11T07:45:40.103Z,1.10
2023-12-11T07:46:43.488Z,1.11
2023-12-11T07:47:47.222Z,1.09
2023-12-11T07:48:50.784Z,1.12
2023-12-11T07:49:54.058Z,1.14
2023-12-11T07:50:56.491Z,1.15
2023-12-11T07:51:59.328Z,1.14
2023-12-11T07:53:02.266Z,1.14
2023-12-11T07:54:04.608Z,1.12
2023-12-11T07:55:07.726Z,1.12
2023-12-11T07:56:22.804Z,1.12
2023-12-11T07:57:25.757Z,1.05
2023-12-11T07:58:28.195Z,1.07
2023-12-11T07:59:30.429Z,1.08
2023-12-11T08:00:33.835Z,1.06
2023-12-11T08:01:36.969Z,1.08
2023-12-11T08:02:39.772Z,1.08
2023-12-11T08:03:42.427Z,1.09
2023-12-11T08:04:45.486Z,1.06
2023-12-11T08:05:48.290Z,1.09
2023-12-11T08:06:51.096Z,1.06
2023-12-11T08:07:53.399Z,1.10
2023-12-11T08:08:55.789Z,1.06
2023-12-11T08:09:58.173Z,1.09
2023-12-11T08:11:01.183Z,1.10
2023-12-11T08:12:03.945Z,1.12
2023-12-11T08:13:06.669Z,1.10
2023-12-11T08:14:09.010Z,1.08
2023-12-11T08:15:11.304Z,1.10
2023-12-11T08:16:16.664Z,1.10
2023-12-11T08:17:19.341Z,1.10
2023-12-11T08:18:21.730Z,1.09
2023-12-11T08:19:24.043Z,1.11
2023-12-11T08:20:28.189Z,1.10
2023-12-11T08:21:31.344Z,1.12
2023-12-11T08:22:33.820Z,1.09
2023-12-11T08:23:36.056Z,1.11
2023-12-11T08:24:38.368Z,1.14
2023-12-11T08:25:40.726Z,1.13
2023-12-11T08:26:43.801Z,1.13
2023-12-11T08:27:47.058Z,1.12
2023-12-11T08:28:49.274Z,1.16
2023-12-11T08:29:52.180Z,1.17
2023-12-11T08:30:55.312Z,1.16
2023-12-11T08:31:58.049Z,1.19
2023-12-11T08:33:00.505Z,1.21
2023-12-11T08:34:02.991Z,1.18
2023-12-11T08:35:06.111Z,1.21
2023-12-11T08:36:10.381Z,1.23
2023-12-11T08:37:13.349Z,1.25
2023-12-11T08:38:17.851Z,1.26
2023-12-11T08:39:20.175Z,1.23
2023-12-11T08:40:24.416Z,1.21
2023-12-11T08:41:27.173Z,1.22
2023-12-11T08:42:30.140Z,1.23
2023-12-11T08:43:33.233Z,1.21
2023-12-11T08:44:35.598Z,1.24
2023-12-11T08:45:38.063Z,1.24
2023-12-11T08:46:40.518Z,1.23
2023-12-11T08:47:43.439Z,1.22
2023-12-11T08:48:46.751Z,1.24
2023-12-11T08:49:49.441Z,1.23
2023-12-11T08:50:52.413Z,1.25
2023-12-11T08:51:55.259Z,1.24
2023-12-11T08:52:58.368Z,1.25
2023-12-11T08:54:01.309Z,1.24
2023-12-11T08:55:04.274Z,1.23
2023-12-11T08:56:07.082Z,1.22
2023-12-11T08:57:10.429Z,1.23
2023-12-11T08:58:12.932Z,1.21
2023-12-11T08:59:15.164Z,1.20
2023-12-11T09:00:19.006Z,1.21
2023-12-11T09:01:22.647Z,1.20
2023-12-11T09:02:25.040Z,1.23
2023-12-11T09:03:27.299Z,1.23
2023-12-11T09:04:30.276Z,1.23
2023-12-11T09:05:33.061Z,1.24
2023-12-11T09:06:36.644Z,1.26
2023-12-11T09:07:39.608Z,1.26
2023-12-11T09:08:42.490Z,1.26
2023-12-11T09:09:44.950Z,1.23
2023-12-11T09:10:47.809Z,1.26
2023-12-11T09:11:50.169Z,1.29
2023-12-11T09:12:54.978Z,1.30
2023-12-11T09:13:57.725Z,1.31
2023-12-11T09:15:00.575Z,1.32
2023-12-11T09:16:03.231Z,1.33
2023-12-11T09:17:05.643Z,1.37
2023-12-11T09:18:09.717Z,1.38
2023-12-11T09:19:12.576Z,1.40
2023-12-11T09:20:16.243Z,1.42
2023-12-11T09:21:19.621Z,1.44
2023-12-11T09:22:22.227Z,1.44
2023-12-11T09:23:24.773Z,1.44
2023-12-11T09:24:27.156Z,1.47
2023-12-11T09:25:30.944Z,1.50
2023-12-11T09:26:37.414Z,1.52
2023-12-11T09:27:42.691Z,1.52
2023-12-11T09:28:51.495Z,1.53
2023-12-11T09:29:53.378Z,1.54
2023-12-11T09:31:00.274Z,1.56
2023-12-11T09:32:05.353Z,1.57
2023-12-11T09:33:10.232Z,1.59
2023-12-11T09:34:15.550Z,1.59
2023-12-11T09:35:21.248Z,1.61
2023-12-11T09:36:32.009Z,1.62
2023-12-11T09:37:36.472Z,1.62
2023-12-11T09:38:40.423Z,1.64
2023-12-11T09:39:47.851Z,1.68
2023-12-11T09:40:51.806Z,1.65
2023-12-11T09:41:58.769Z,1.66
2023-12-11T09:43:10.858Z,1.66
2023-12-11T09:44:18.437Z,1.68
2023-12-11T09:45:25.820Z,1.67
2023-12-11T09:47:09.143Z,1.69
2023-12-11T09:48:15.372Z,1.66
2023-12-11T09:49:19.319Z,1.68
2023-12-11T09:50:25.666Z,1.67
2023-12-11T09:51:30.785Z,1.68
2023-12-11T09:52:41.201Z,1.67
2023-12-11T09:53:45.253Z,1.63
2023-12-11T09:54:50.415Z,1.65
2023-12-11T09:55:54.104Z,1.66
2023-12-11T09:57:00.481Z,1.64
2023-12-11T09:58:06.404Z,1.67
2023-12-11T09:59:16.597Z,1.64
2023-12-11T10:00:35.669Z,1.63
2023-12-11T10:01:48.794Z,1.63
2023-12-11T10:02:56.402Z,1.66
2023-12-11T10:04:01.262Z,1.67
2023-12-11T10:05:09.547Z,1.67
2023-12-11T10:06:21.457Z,1.65
2023-12-11T10:07:26.086Z,1.67
2023-12-11T10:08:32.656Z,1.70
2023-12-11T10:09:41.109Z,1.68
2023-12-11T10:10:46.610Z,1.70
2023-12-11T10:12:00.808Z,1.67
2023-12-11T10:13:06.498Z,1.71
2023-12-11T10:14:12.095Z,1.68
2023-12-11T10:16:34.196Z,1.77
2023-12-11T10:17:36.547Z,1.63
2023-12-11T10:18:48.980Z,1.65
2023-12-11T10:19:52.084Z,1.62
2023-12-11T10:20:56.549Z,1.61
2023-12-11T10:21:59.120Z,1.62
2023-12-11T10:23:16.700Z,1.62
2023-12-11T10:24:19.925Z,1.61
2023-12-11T10:25:30.035Z,1.59
2023-12-11T10:26:38.712Z,1.54
2023-12-11T10:27:41.574Z,1.54
2023-12-11T10:28:44.375Z,1.54
2023-12-11T10:29:47.095Z,1.55
2023-12-11T10:31:03.429Z,1.53
2023-12-11T10:32:06.204Z,1.48
2023-12-11T10:33:09.068Z,1.48
2023-12-11T10:34:11.782Z,1.47
2023-12-11T10:35:24.634Z,1.46
2023-12-11T10:36:27.918Z,1.48
2023-12-11T10:37:30.669Z,1.47
2023-12-11T10:38:34.533Z,1.45
2023-12-11T10:39:37.345Z,1.46
2023-12-11T10:41:51.886Z,1.57
2023-12-11T10:42:58.570Z,1.43
2023-12-11T10:44:12.640Z,1.45
2023-12-11T10:45:06.947Z,1.48
2023-12-11T10:46:12.105Z,1.52
2023-12-11T10:47:16.366Z,1.54
2023-12-11T10:48:19.825Z,1.59
2023-12-11T10:49:23.592Z,1.63
2023-12-11T10:50:27.024Z,1.65
2023-12-11T10:51:30.456Z,1.63
2023-12-11T10:52:34.564Z,1.64
2023-12-11T10:53:36.841Z,1.68
2023-12-11T10:54:40.218Z,1.67
2023-12-11T10:55:43.550Z,1.72
2023-12-11T10:56:48.226Z,1.69
2023-12-11T10:57:52.008Z,1.72
2023-12-11T10:58:55.264Z,1.68
2023-12-11T10:59:58.203Z,1.71
2023-12-11T11:01:02.788Z,1.70
2023-12-11T11:02:08.021Z,1.76
2023-12-11T11:03:11.813Z,1.73
2023-12-11T11:04:17.728Z,1.73
2023-12-11T11:05:21.286Z,1.77
2023-12-11T11:06:27.327Z,1.75
2023-12-11T11:07:33.978Z,1.75
2023-12-11T11:08:55.736Z,1.75
2023-12-11T11:10:04.634Z,1.74
2023-12-11T11:12:41.353Z,1.84
2023-12-11T11:13:59.246Z,1.69
2023-12-11T11:15:04.275Z,1.70
2023-12-11T11:16:07.308Z,1.72
2023-12-11T11:17:10.054Z,1.68
2023-12-11T11:19:29.020Z,1.76
2023-12-11T11:20:40.404Z,1.58
2023-12-11T11:22:04.483Z,1.57
2023-12-11T11:23:20.803Z,1.55
2023-12-11T11:24:25.780Z,1.58
2023-12-11T11:25:35.768Z,1.61
2023-12-11T11:26:40.147Z,1.59
2023-12-11T11:27:42.562Z,1.61
2023-12-11T11:28:45.278Z,1.60
2023-12-11T11:29:47.854Z,1.60
2023-12-11T11:30:53.091Z,1.59
2023-12-11T11:31:55.906Z,1.58
2023-12-11T11:32:58.549Z,1.60
2023-12-11T11:34:01.417Z,1.59
2023-12-11T11:35:07.245Z,1.57
2023-12-11T11:36:12.161Z,1.59
2023-12-11T11:37:17.168Z,1.57
2023-12-11T11:38:21.038Z,1.57
2023-12-11T11:39:24.591Z,1.51
2023-12-11T11:40:34.616Z,1.52
2023-12-11T11:41:38.971Z,1.50
2023-12-11T11:42:41.627Z,1.50
2023-12-11T11:43:48.461Z,1.48
2023-12-11T11:45:04.596Z,1.50
2023-12-11T11:46:08.346Z,1.44
2023-12-11T11:47:10.744Z,1.43
2023-12-11T11:48:14.136Z,1.38
2023-12-11T11:49:33.244Z,1.39
2023-12-11T11:50:36.488Z,1.36
2023-12-11T11:51:39.673Z,1.40
2023-12-11T11:52:43.912Z,1.41
2023-12-11T11:53:50.560Z,1.36
2023-12-11T11:55:02.511Z,1.39
2023-12-11T11:56:06.257Z,1.35
2023-12-11T11:57:08.748Z,1.36
2023-12-11T11:58:12.620Z,1.41
2023-12-11T11:59:15.012Z,1.43
2023-12-11T12:01:37.270Z,1.59
2023-12-11T12:02:40.141Z,1.45
2023-12-11T12:03:43.385Z,1.45
2023-12-11T12:04:46.341Z,1.48
2023-12-11T12:05:56.227Z,1.51
2023-12-11T12:07:01.838Z,1.54
2023-12-11T12:08:11.679Z,1.54
2023-12-11T12:09:20.975Z,1.54
2023-12-11T12:10:25.809Z,1.53
2023-12-11T12:11:28.689Z,1.52
2023-12-11T12:12:31.042Z,1.52
2023-12-11T12:13:36.570Z,1.51
2023-12-11T12:14:39.699Z,1.43
2023-12-11T12:15:43.348Z,1.38
2023-12-11T12:16:46.540Z,1.33
2023-12-11T12:17:52.973Z,1.31
2023-12-11T12:18:56.253Z,1.29
2023-12-11T12:20:00.303Z,1.29
2023-12-11T12:21:07.062Z,1.27
2023-12-11T12:22:11.971Z,1.28
2023-12-11T12:23:14.602Z,1.26
2023-12-11T12:24:17.326Z,1.26
2023-12-11T12:25:19.946Z,1.24
2023-12-11T12:26:24.574Z,1.25
2023-12-11T12:27:27.913Z,1.26
2023-12-11T12:28:30.984Z,1.26
2023-12-11T12:29:35.327Z,1.25
2023-12-11T12:30:39.231Z,1.24
2023-12-11T12:31:42.865Z,1.24
2023-12-11T12:32:50.460Z,1.23
2023-12-11T12:33:53.582Z,1.24
2023-12-11T12:34:56.435Z,1.23
2023-12-11T12:35:59.347Z,1.25
2023-12-11T12:37:03.813Z,1.27
2023-12-11T12:38:08.116Z,1.24
2023-12-11T12:39:16.112Z,1.21
2023-12-11T12:40:20.951Z,1.21
2023-12-11T12:41:23.499Z,1.22
2023-12-11T12:42:30.462Z,1.18
2023-12-11T12:43:33.044Z,1.16
2023-12-11T12:44:41.956Z,1.19
2023-12-11T12:45:44.168Z,1.17
2023-12-11T12:46:48.293Z,1.14
2023-12-11T12:47:50.614Z,1.12
2023-12-11T12:48:53.052Z,1.11
2023-12-11T12:49:56.540Z,1.12
2023-12-11T12:52:25.505Z,1.25
2023-12-11T12:53:27.719Z,1.13
2023-12-11T12:54:33.529Z,1.17
2023-12-11T12:55:35.837Z,1.14
2023-12-11T12:56:39.410Z,1.14
2023-12-11T12:57:41.854Z,1.15
2023-12-11T12:59:58.048Z,1.26
2023-12-11T13:01:01.586Z,1.08
2023-12-11T13:02:08.137Z,1.11
2023-12-11T13:03:10.839Z,1.11
2023-12-11T13:04:13.702Z,1.12
2023-12-11T13:05:16.025Z,1.13
2023-12-11T13:06:25.917Z,1.12
2023-12-11T13:07:28.635Z,1.13
2023-12-11T13:08:43.949Z,1.13
2023-12-11T13:09:46.596Z,1.13
2023-12-11T13:10:53.751Z,1.16
2023-12-11T13:11:56.557Z,1.18
2023-12-11T13:12:59.525Z,1.17
2023-12-11T13:14:01.823Z,1.18
2023-12-11T13:15:06.061Z,1.19
2023-12-11T13:16:09.767Z,1.18
2023-12-11T13:17:12.053Z,1.18
2023-12-11T13:18:14.816Z,1.22
2023-12-11T13:19:17.753Z,1.21
2023-12-11T13:20:22.915Z,1.20
2023-12-11T13:21:25.516Z,1.19
2023-12-11T13:22:28.128Z,1.20
2023-12-11T13:24:49.745Z,1.31
2023-12-11T13:25:51.953Z,1.19
2023-12-11T13:26:54.570Z,1.16
2023-12-11T13:27:56.950Z,1.19
2023-12-11T13:28:59.724Z,1.20
2023-12-11T13:30:02.402Z,1.16
2023-12-11T13:31:05.452Z,1.14
2023-12-11T13:32:08.153Z,1.14
2023-12-11T13:33:10.346Z,1.19
2023-12-11T13:34:13.319Z,1.15
2023-12-11T13:35:16.672Z,1.13
2023-12-11T13:36:21.395Z,1.13
2023-12-11T13:37:23.566Z,1.10
2023-12-11T13:38:26.551Z,1.13
2023-12-11T13:39:28.839Z,1.14
2023-12-11T13:40:31.685Z,1.14
2023-12-11T13:41:37.028Z,1.16
2023-12-11T13:42:39.340Z,1.16
2023-12-11T13:43:42.005Z,1.18
2023-12-11T13:44:44.116Z,1.18
2023-12-11T13:45:47.303Z,1.21
2023-12-11T13:46:50.428Z,1.14
2023-12-11T13:47:52.979Z,1.13
2023-12-11T13:48:55.768Z,1.13
2023-12-11T13:49:57.985Z,1.12
2023-12-11T13:51:01.100Z,1.10
2023-12-11T13:52:03.599Z,1.09
2023-12-11T13:53:06.628Z,1.08
2023-12-11T13:54:09.177Z,1.08
2023-12-11T13:55:12.328Z,1.07
2023-12-11T13:56:16.105Z,1.10
2023-12-11T13:57:22.264Z,1.08
2023-12-11T13:58:24.589Z,1.07
2023-12-11T13:59:27.173Z,1.08
2023-12-11T14:00:30.189Z,1.09
2023-12-11T14:01:32.407Z,1.07
2023-12-11T14:02:59.586Z,1.06
2023-12-11T14:03:39.476Z,1.05
2023-12-11T14:04:41.916Z,1.02
2023-12-11T14:05:44.182Z,1.03
2023-12-11T14:06:48.337Z,1.04
2023-12-11T14:07:50.529Z,1.01
2023-12-11T14:08:52.771Z,1.02
2023-12-11T14:09:55.580Z,1.03
2023-12-11T14:10:59.269Z,1.03
2023-12-11T14:12:01.842Z,1.05
2023-12-11T14:13:04.513Z,1.07
2023-12-11T14:14:06.655Z,1.06
2023-12-11T14:15:09.915Z,1.06
2023-12-11T14:16:15.650Z,1.05
2023-12-11T14:17:18.440Z,1.06
2023-12-11T14:18:21.062Z,1.03
2023-12-11T14:19:23.503Z,1.04
2023-12-11T14:20:26.190Z,1.03
2023-12-11T14:21:31.523Z,1.04